Time,TemperatureF,DewpointF,PressureIn,WindDirection,WindDirectionDegrees,WindSpeedMPH,WindSpeedGustMPH,Humidity,HourlyPrecipIn,Conditions,Clouds,dailyrainin,SoftwareType,DateUTC
2013-06-25 00:01:00,78.0,67.0,29.95,North,-999,-999.0,-999.0,69,-99.99,,,-99.99,,2013-06-25 05:01:00,
2013-06-25 00:11:00,78.0,67.0,29.95,North,-999,-999.0,-999.0,69,-99.99,,,-99.99,,2013-06-25 05:11:00,
2013-06-25 00:32:00,78.0,67.0,29.95,North,-999,-999.0,-999.0,70,-99.99,,,-99.99,,2013-06-25 05:32:00,
2013-06-25 00:44:00,78.0,67.0,29.94,North,-999,-999.0,-999.0,70,-99.99,,,-99.99,,2013-06-25 05:44:00,
2013-06-25 01:01:00,77.0,67.0,29.94,North,-999,-999.0,-999.0,71,-99.99,,,-99.99,,2013-06-25 06:01:00,
2013-06-25 01:11:00,77.0,67.0,29.94,North,-999,-999.0,-999.0,71,-99.99,,,-99.99,,2013-06-25 06:11:00,
2013-06-25 01:33:00,76.0,67.0,29.94,North,-999,-999.0,-999.0,72,-99.99,,,-99.99,,2013-06-25 06:33:00,
2013-06-25 01:43:00,76.0,67.0,29.94,North,-999,-999.0,-999.0,72,-99.99,,,-99.99,,2013-06-25 06:43:00,
2013-06-25 02:02:00,76.0,66.0,29.95,North,-999,-999.0,-999.0,72,-99.99,,,-99.99,,2013-06-25 07:02:00,
2013-06-25 02:11:00,76.0,66.0,29.96,North,-999,-999.0,-999.0,73,-99.99,,,-99.99,,2013-06-25 07:11:00,
2013-06-25 02:22:00,76.0,66.0,29.96,North,-999,-999.0,-999.0,73,-99.99,,,-99.99,,2013-06-25 07:22:00,
2013-06-25 02:33:00,75.0,66.0,29.95,North,-999,-999.0,-999.0,74,-99.99,,,-99.99,,2013-06-25 07:33:00,
2013-06-25 02:43:00,75.0,66.0,29.96,North,-999,-999.0,-999.0,74,-99.99,,,-99.99,,2013-06-25 07:43:00,
2013-06-25 03:01:00,75.0,66.0,29.95,North,-999,-999.0,-999.0,74,-99.99,,,-99.99,,2013-06-25 08:01:00,
2013-06-25 03:11:00,75.0,66.0,29.95,North,-999,-999.0,-999.0,74,-99.99,,,-99.99,,2013-06-25 08:11:00,
2013-06-25 03:34:00,75.0,66.0,29.94,North,-999,-999.0,-999.0,74,-99.99,,,-99.99,,2013-06-25 08:34:00,
2013-06-25 03:43:00,75.0,66.0,29.94,North,-999,-999.0,-999.0,74,-99.99,,,-99.99,,2013-06-25 08:43:00,
2013-06-25 04:02:00,75.0,66.0,29.94,North,-999,-999.0,-999.0,75,-99.99,,,-99.99,,2013-06-25 09:02:00,
2013-06-25 04:12:00,75.0,66.0,29.94,North,-999,-999.0,-999.0,75,-99.99,,,-99.99,,2013-06-25 09:12:00,
2013-06-25 04:22:00,75.0,66.0,29.94,North,-999,-999.0,-999.0,75,-99.99,,,-99.99,,2013-06-25 09:22:00,
2013-06-25 04:33:00,74.0,66.0,29.92,North,-999,-999.0,-999.0,76,-99.99,,,-99.99,,2013-06-25 09:33:00,
2013-06-25 04:43:00,74.0,66.0,29.92,North,-999,-999.0,-999.0,76,-99.99,,,-99.99,,2013-06-25 09:43:00,
2013-06-25 05:01:00,74.0,66.0,29.92,North,-999,-999.0,-999.0,77,-99.99,,,-99.99,,2013-06-25 10:01:00,
2013-06-25 05:11:00,74.0,66.0,29.91,North,-999,-999.0,-999.0,77,-99.99,,,-99.99,,2013-06-25 10:11:00,
2013-06-25 05:33:00,74.0,67.0,29.91,North,-999,-999.0,-999.0,78,-99.99,,,-99.99,,2013-06-25 10:33:00,
2013-06-25 05:42:00,74.0,67.0,29.92,North,-999,-999.0,-999.0,78,-99.99,,,-99.99,,2013-06-25 10:42:00,
2013-06-25 06:02:00,74.0,66.0,29.92,North,-999,-999.0,-999.0,78,-99.99,,,-99.99,,2013-06-25 11:02:00,
2013-06-25 06:12:00,74.0,67.0,29.92,North,-999,-999.0,-999.0,79,-99.99,,,-99.99,,2013-06-25 11:12:00,
2013-06-25 06:22:00,74.0,67.0,29.92,North,-999,-999.0,-999.0,79,-99.99,,,-99.99,,2013-06-25 11:22:00,
2013-06-25 06:34:00,73.0,66.0,29.92,North,-999,-999.0,-999.0,79,-99.99,,,-99.99,,2013-06-25 11:34:00,
2013-06-25 06:43:00,73.0,66.0,29.92,North,-999,-999.0,-999.0,79,-99.99,,,-99.99,,2013-06-25 11:43:00,
2013-06-25 07:02:00,73.0,66.0,29.93,North,-999,-999.0,-999.0,79,-99.99,,,-99.99,,2013-06-25 12:02:00,
2013-06-25 07:11:00,74.0,67.0,29.94,North,-999,-999.0,-999.0,79,-99.99,,,-99.99,,2013-06-25 12:11:00,
2013-06-25 07:33:00,74.0,67.0,29.94,North,-999,-999.0,-999.0,79,-99.99,,,-99.99,,2013-06-25 12:33:00,
2013-06-25 07:43:00,74.0,68.0,29.94,North,-999,-999.0,-999.0,79,-99.99,,,-99.99,,2013-06-25 12:43:00,
2013-06-25 08:02:00,75.0,68.0,29.93,North,-999,-999.0,-999.0,78,-99.99,,,-99.99,,2013-06-25 13:02:00,
2013-06-25 08:12:00,76.0,68.0,29.93,North,-999,-999.0,-999.0,77,-99.99,,,-99.99,,2013-06-25 13:12:00,
2013-06-25 08:22:00,76.0,68.0,29.93,North,-999,-999.0,-999.0,77,-99.99,,,-99.99,,2013-06-25 13:22:00,
2013-06-25 08:34:00,77.0,69.0,29.93,North,-999,-999.0,-999.0,75,-99.99,,,-99.99,,2013-06-25 13:34:00,
2013-06-25 08:42:00,78.0,69.0,29.93,North,-999,-999.0,-999.0,74,-99.99,,,-99.99,,2013-06-25 13:42:00,
2013-06-25 09:01:00,79.0,69.0,29.93,North,-999,-999.0,-999.0,72,-99.99,,,-99.99,,2013-06-25 14:01:00,
2013-06-25 09:11:00,80.0,69.0,29.94,North,-999,-999.0,-999.0,71,-99.99,,,-99.99,,2013-06-25 14:11:00,
2013-06-25 09:34:00,81.0,69.0,29.94,North,-999,-999.0,-999.0,68,-99.99,,,-99.99,,2013-06-25 14:34:00,
2013-06-25 09:43:00,81.0,69.0,29.94,North,-999,-999.0,-999.0,66,-99.99,,,-99.99,,2013-06-25 14:43:00,
2013-06-25 10:02:00,83.0,69.0,29.94,North,-999,-999.0,-999.0,64,-99.99,,,-99.99,,2013-06-25 15:02:00,
2013-06-25 10:11:00,83.0,69.0,29.94,North,-999,-999.0,-999.0,63,-99.99,,,-99.99,,2013-06-25 15:11:00,
2013-06-25 10:22:00,83.0,69.0,29.94,North,-999,-999.0,-999.0,63,-99.99,,,-99.99,,2013-06-25 15:22:00,
2013-06-25 10:32:00,83.0,69.0,29.93,North,-999,-999.0,-999.0,62,-99.99,,,-99.99,,2013-06-25 15:32:00,
2013-06-25 10:44:00,84.0,69.0,29.93,North,-999,-999.0,-999.0,62,-99.99,,,-99.99,,2013-06-25 15:44:00,
2013-06-25 11:03:00,84.0,69.0,29.93,North,-999,-999.0,-999.0,61,-99.99,,,-99.99,,2013-06-25 16:03:00,
2013-06-25 11:12:00,85.0,69.0,29.93,North,-999,-999.0,-999.0,60,-99.99,,,-99.99,,2013-06-25 16:12:00,
2013-06-25 11:23:00,85.0,69.0,29.93,North,-999,-999.0,-999.0,60,-99.99,,,-99.99,,2013-06-25 16:23:00,
2013-06-25 11:35:00,85.0,69.0,29.93,North,-999,-999.0,-999.0,58,-99.99,,,-99.99,,2013-06-25 16:35:00,
2013-06-25 11:44:00,86.0,70.0,29.93,North,-999,-999.0,-999.0,60,-99.99,,,-99.99,,2013-06-25 16:44:00,
2013-06-25 12:01:00,87.0,69.0,29.93,North,-999,-999.0,-999.0,55,-99.99,,,-99.99,,2013-06-25 17:01:00,
2013-06-25 12:11:00,87.0,71.0,29.94,North,-999,-999.0,-999.0,58,-99.99,,,-99.99,,2013-06-25 17:11:00,
2013-06-25 12:22:00,87.0,71.0,29.94,North,-999,-999.0,-999.0,58,-99.99,,,-99.99,,2013-06-25 17:22:00,
2013-06-25 12:33:00,87.0,68.0,29.94,North,-999,-999.0,-999.0,54,-99.99,,,-99.99,,2013-06-25 17:33:00,
2013-06-25 12:44:00,88.0,69.0,29.94,North,-999,-999.0,-999.0,55,-99.99,,,-99.99,,2013-06-25 17:44:00,
2013-06-25 13:02:00,88.0,67.0,29.94,North,-999,-999.0,-999.0,51,-99.99,,,-99.99,,2013-06-25 18:02:00,
2013-06-25 13:12:00,88.0,66.0,29.94,North,-999,-999.0,-999.0,49,-99.99,,,-99.99,,2013-06-25 18:12:00,
2013-06-25 13:34:00,88.0,66.0,29.94,North,-999,-999.0,-999.0,48,-99.99,,,-99.99,,2013-06-25 18:34:00,
2013-06-25 13:44:00,88.0,65.0,29.94,North,-999,-999.0,-999.0,47,-99.99,,,-99.99,,2013-06-25 18:44:00,
2013-06-25 14:01:00,87.0,67.0,29.94,North,-999,-999.0,-999.0,51,-99.99,,,-99.99,,2013-06-25 19:01:00,
2013-06-25 14:12:00,88.0,68.0,29.93,North,-999,-999.0,-999.0,52,-99.99,,,-99.99,,2013-06-25 19:12:00,
2013-06-25 14:22:00,88.0,68.0,29.93,North,-999,-999.0,-999.0,52,-99.99,,,-99.99,,2013-06-25 19:22:00,
2013-06-25 14:33:00,88.0,65.0,29.92,North,-999,-999.0,-999.0,48,-99.99,,,-99.99,,2013-06-25 19:33:00,
2013-06-25 14:44:00,88.0,65.0,29.91,North,-999,-999.0,-999.0,47,-99.99,,,-99.99,,2013-06-25 19:44:00,
2013-06-25 15:02:00,87.0,67.0,29.90,North,-999,-999.0,-999.0,51,-99.99,,,-99.99,,2013-06-25 20:02:00,
2013-06-25 15:11:00,87.0,64.0,29.89,North,-999,-999.0,-999.0,48,-99.99,,,-99.99,,2013-06-25 20:11:00,
2013-06-25 15:33:00,86.0,66.0,29.87,North,-999,-999.0,-999.0,51,-99.99,,,-99.99,,2013-06-25 20:33:00,
2013-06-25 15:42:00,86.0,66.0,29.87,North,-999,-999.0,-999.0,52,-99.99,,,-99.99,,2013-06-25 20:42:00,
2013-06-25 15:52:00,87.0,67.0,29.86,North,-999,-999.0,-999.0,51,-99.99,,,-99.99,,2013-06-25 20:52:00,
2013-06-25 16:01:00,87.0,67.0,29.86,North,-999,-999.0,-999.0,51,-99.99,,,-99.99,,2013-06-25 21:01:00,
2013-06-25 16:11:00,88.0,65.0,29.86,North,-999,-999.0,-999.0,46,-99.99,,,-99.99,,2013-06-25 21:11:00,
2013-06-25 16:22:00,88.0,65.0,29.86,North,-999,-999.0,-999.0,46,-99.99,,,-99.99,,2013-06-25 21:22:00,
2013-06-25 16:34:00,89.0,65.0,29.85,North,-999,-999.0,-999.0,45,-99.99,,,-99.99,,2013-06-25 21:34:00,
2013-06-25 16:43:00,89.0,66.0,29.84,North,-999,-999.0,-999.0,48,-99.99,,,-99.99,,2013-06-25 21:43:00,
2013-06-25 17:01:00,89.0,67.0,29.85,North,-999,-999.0,-999.0,48,-99.99,,,-99.99,,2013-06-25 22:01:00,
2013-06-25 17:11:00,89.0,65.0,29.85,North,-999,-999.0,-999.0,46,-99.99,,,-99.99,,2013-06-25 22:11:00,
2013-06-25 17:22:00,89.0,65.0,29.85,North,-999,-999.0,-999.0,46,-99.99,,,-99.99,,2013-06-25 22:22:00,
2013-06-25 17:34:00,88.0,64.0,29.84,North,-999,-999.0,-999.0,45,-99.99,,,-99.99,,2013-06-25 22:34:00,
2013-06-25 17:42:00,88.0,65.0,29.84,North,-999,-999.0,-999.0,46,-99.99,,,-99.99,,2013-06-25 22:42:00,
2013-06-25 17:50:00,87.0,66.0,29.82,North,-999,-999.0,-999.0,50,-99.99,,,-99.99,,2013-06-25 22:50:00,
2013-06-25 18:01:00,88.0,64.0,29.82,North,-999,-999.0,-999.0,46,-99.99,,,-99.99,,2013-06-25 23:01:00,
2013-06-25 18:11:00,88.0,65.0,29.82,North,-999,-999.0,-999.0,48,-99.99,,,-99.99,,2013-06-25 23:11:00,
2013-06-25 18:34:00,87.0,66.0,29.82,North,-999,-999.0,-999.0,50,-99.99,,,-99.99,,2013-06-25 23:34:00,
2013-06-25 18:44:00,87.0,66.0,29.82,North,-999,-999.0,-999.0,50,-99.99,,,-99.99,,2013-06-25 23:44:00,
2013-06-25 19:02:00,84.0,64.0,29.81,North,-999,-999.0,-999.0,52,-99.99,,,-99.99,,2013-06-26 00:02:00,
2013-06-25 19:11:00,84.0,64.0,29.81,North,-999,-999.0,-999.0,52,-99.99,,,-99.99,,2013-06-26 00:11:00,
2013-06-25 19:33:00,84.0,66.0,29.81,North,-999,-999.0,-999.0,54,-99.99,,,-99.99,,2013-06-26 00:33:00,
2013-06-25 19:42:00,84.0,66.0,29.81,North,-999,-999.0,-999.0,54,-99.99,,,-99.99,,2013-06-26 00:42:00,
2013-06-25 20:01:00,83.0,66.0,29.80,North,-999,-999.0,-999.0,57,-99.99,,,-99.99,,2013-06-26 01:01:00,
2013-06-25 20:11:00,83.0,66.0,29.81,North,-999,-999.0,-999.0,56,-99.99,,,-99.99,,2013-06-26 01:11:00,
2013-06-25 20:33:00,83.0,66.0,29.81,North,-999,-999.0,-999.0,58,-99.99,,,-99.99,,2013-06-26 01:33:00,
2013-06-25 20:43:00,82.0,67.0,29.81,North,-999,-999.0,-999.0,59,-99.99,,,-99.99,,2013-06-26 01:43:00,
2013-06-25 21:02:00,81.0,66.0,29.81,North,-999,-999.0,-999.0,61,-99.99,,,-99.99,,2013-06-26 02:02:00,
2013-06-25 21:11:00,81.0,66.0,29.81,North,-999,-999.0,-999.0,61,-99.99,,,-99.99,,2013-06-26 02:11:00,
2013-06-25 21:34:00,81.0,65.0,29.81,North,-999,-999.0,-999.0,60,-99.99,,,-99.99,,2013-06-26 02:34:00,
2013-06-25 21:43:00,80.0,65.0,29.82,North,-999,-999.0,-999.0,61,-99.99,,,-99.99,,2013-06-26 02:43:00,
2013-06-25 22:02:00,79.0,65.0,29.83,North,-999,-999.0,-999.0,62,-99.99,,,-99.99,,2013-06-26 03:02:00,
2013-06-25 22:11:00,79.0,65.0,29.83,North,-999,-999.0,-999.0,62,-99.99,,,-99.99,,2013-06-26 03:11:00,
2013-06-25 22:22:00,79.0,65.0,29.83,North,-999,-999.0,-999.0,62,-99.99,,,-99.99,,2013-06-26 03:22:00,
2013-06-25 22:33:00,79.0,65.0,29.84,North,-999,-999.0,-999.0,63,-99.99,,,-99.99,,2013-06-26 03:33:00,
2013-06-25 22:43:00,78.0,65.0,29.84,North,-999,-999.0,-999.0,64,-99.99,,,-99.99,,2013-06-26 03:43:00,
2013-06-25 22:52:00,78.0,65.0,29.84,North,-999,-999.0,-999.0,65,-99.99,,,-99.99,,2013-06-26 03:52:00,
2013-06-25 23:01:00,78.0,65.0,29.84,North,-999,-999.0,-999.0,65,-99.99,,,-99.99,,2013-06-26 04:01:00,
2013-06-25 23:12:00,78.0,65.0,29.84,North,-999,-999.0,-999.0,66,-99.99,,,-99.99,,2013-06-26 04:12:00,
2013-06-25 23:33:00,77.0,66.0,29.85,North,-999,-999.0,-999.0,67,-99.99,,,-99.99,,2013-06-26 04:33:00,
2013-06-25 23:43:00,77.0,65.0,29.84,North,-999,-999.0,-999.0,67,-99.99,,,-99.99,,2013-06-26 04:43:00,